Kovel, Ukraine
Current Conditions -  °F | °C
As of 1:00 PM on Wednesday 22 Oct 2014 (Local Time) from UKLR Reporting Station
Clear Clear  
Wind Chill: 57°   Ceiling: Unl
Heat Index: 57°   Visibility: 6mi
Dew Point: 46°   Wind: 9mph
Humidity: 67%   Direction: 140°SE
Pressure: 29.68"   Gusts: NA
Location:  51.22°N, 24.72°E
Report Text: UKLR 221000Z 14004MPS 110V190 CAVOK 14/08 Q1005 30090070 NOSIG
Loading
Personal Weather Stations






























Interactive Weather Map
Tropical Storm Tracking
New forecast layout! Learn more

10-Day Weather Forecast

Advertisements
Track Severe Weather on mobile